createdAt,value
2018-05-23T00:01:11.666Z,15.16
2018-05-23T00:03:39.956Z,15.16
2018-05-23T00:06:08.316Z,15.22
2018-05-23T00:08:36.599Z,15.25
2018-05-23T00:11:04.887Z,15.17
2018-05-23T00:13:33.207Z,15.19
2018-05-23T00:16:01.496Z,15.26
2018-05-23T00:18:30.542Z,15.28
2018-05-23T00:20:58.871Z,15.34
2018-05-23T00:23:27.923Z,15.39
2018-05-23T00:25:56.214Z,15.40
2018-05-23T00:28:24.526Z,15.40
2018-05-23T00:30:53.585Z,15.43
2018-05-23T00:33:21.886Z,15.42
2018-05-23T00:48:40.428Z,15.40
2018-05-23T00:51:09.482Z,15.29
2018-05-23T00:53:37.762Z,15.22
2018-05-23T00:56:06.063Z,15.07
2018-05-23T00:58:34.355Z,15.02
2018-05-23T01:01:03.431Z,14.91
2018-05-23T01:03:31.714Z,14.83
2018-05-23T01:06:00.035Z,14.80
2018-05-23T01:08:28.319Z,14.72
2018-05-23T01:10:56.606Z,14.61
2018-05-23T01:13:24.934Z,14.58
2018-05-23T01:15:53.224Z,14.51
2018-05-23T01:18:21.510Z,14.46
2018-05-23T01:20:49.891Z,14.42
2018-05-23T01:23:18.183Z,14.49
2018-05-23T01:25:46.470Z,14.34
2018-05-23T01:28:14.799Z,14.20
2018-05-23T01:30:43.082Z,14.13
2018-05-23T01:33:11.380Z,14.07
2018-05-23T01:35:39.706Z,13.89
2018-05-23T01:38:07.998Z,13.82
2018-05-23T01:40:36.286Z,13.89
2018-05-23T01:43:05.392Z,13.94
2018-05-23T01:45:34.455Z,13.96
2018-05-23T01:48:02.756Z,14.04
2018-05-23T01:50:31.883Z,13.99
2018-05-23T01:53:00.179Z,14.06
2018-05-23T01:55:28.527Z,14.06
2018-05-23T01:57:56.823Z,14.13
2018-05-23T02:00:25.119Z,14.13
2018-05-23T02:02:53.412Z,14.13
2018-05-23T02:05:21.733Z,14.10
2018-05-23T02:07:50.035Z,14.13
2018-05-23T02:10:25.227Z,14.14
2018-05-23T02:12:54.274Z,14.20
2018-05-23T02:15:22.581Z,14.27
2018-05-23T02:17:50.875Z,14.29
2018-05-23T02:20:19.199Z,14.30
2018-05-23T02:22:47.542Z,14.38
2018-05-23T02:25:15.839Z,14.37
2018-05-23T02:27:44.127Z,14.34
2018-05-23T02:30:12.619Z,14.41
2018-05-23T02:32:40.822Z,14.46
2018-05-23T02:35:09.115Z,14.45
2018-05-23T02:37:37.432Z,14.37
2018-05-23T02:40:05.729Z,14.37
2018-05-23T02:42:34.069Z,14.45
2018-05-23T02:45:02.368Z,14.33
2018-05-23T02:47:30.663Z,14.18
2018-05-23T02:49:58.990Z,14.08
2018-05-23T02:52:27.278Z,14.07
2018-05-23T02:54:55.573Z,14.09
2018-05-23T02:57:23.906Z,14.08
2018-05-23T02:59:52.201Z,14.08
2018-05-23T03:02:21.254Z,14.13
2018-05-23T03:04:49.570Z,14.14
2018-05-23T03:07:18.642Z,14.06
2018-05-23T03:09:46.930Z,14.08
2018-05-23T03:12:15.263Z,14.11
2018-05-23T03:14:43.562Z,14.16
2018-05-23T03:17:11.854Z,14.25
2018-05-23T03:19:40.197Z,14.39
2018-05-23T03:22:08.540Z,14.43
2018-05-23T03:24:36.778Z,14.45
2018-05-23T03:27:05.119Z,14.41
2018-05-23T03:29:33.410Z,14.25
2018-05-23T03:32:01.703Z,14.26
2018-05-23T03:34:30.019Z,14.41
2018-05-23T03:36:58.307Z,14.48
2018-05-23T03:39:26.667Z,14.48
2018-05-23T03:41:54.946Z,14.44
2018-05-23T03:44:23.229Z,14.34
2018-05-23T03:46:52.315Z,14.36
2018-05-23T03:49:20.602Z,14.46
2018-05-23T03:54:52.027Z,14.55
2018-05-23T03:57:20.256Z,14.55
2018-05-23T04:00:06.107Z,14.49
2018-05-23T04:02:51.892Z,14.45
2018-05-23T04:05:37.715Z,14.50
2018-05-23T04:08:06.703Z,14.57
2018-05-23T04:10:34.931Z,14.58
2018-05-23T04:13:03.198Z,14.52
2018-05-23T04:15:31.556Z,14.50
2018-05-23T04:18:00.427Z,14.49
2018-05-23T04:20:28.707Z,14.45
2018-05-23T04:22:56.935Z,14.45
2018-05-23T04:25:25.163Z,14.40
2018-05-23T04:27:53.436Z,14.44
2018-05-23T04:30:22.414Z,14.44
2018-05-23T04:32:50.642Z,14.44
2018-05-23T04:35:18.899Z,14.49
2018-05-23T04:37:47.130Z,14.55
2018-05-23T04:40:15.356Z,14.55
2018-05-23T04:42:43.604Z,14.60
2018-05-23T04:45:11.836Z,14.68
2018-05-23T04:47:40.072Z,14.75
2018-05-23T04:50:08.331Z,14.75
2018-05-23T04:52:37.335Z,14.80
2018-05-23T04:55:05.559Z,14.81
2018-05-23T04:57:33.808Z,14.84
2018-05-23T05:00:02.051Z,14.90
2018-05-23T05:02:31.027Z,14.88
2018-05-23T05:04:59.288Z,14.86
2018-05-23T05:07:27.524Z,14.97
2018-05-23T05:09:55.767Z,14.94
2018-05-23T05:12:24.017Z,15.06
2018-05-23T05:14:52.232Z,15.04
2018-05-23T05:17:20.454Z,15.02
2018-05-23T05:19:48.728Z,15.08
2018-05-23T05:22:16.951Z,15.13
2018-05-23T05:24:45.952Z,15.22
2018-05-23T05:27:14.186Z,15.29
2018-05-23T05:29:42.421Z,15.34
2018-05-23T05:32:10.683Z,15.40
2018-05-23T05:34:38.916Z,15.45
2018-05-23T05:37:07.135Z,15.55
2018-05-23T05:39:35.397Z,15.67
2018-05-23T05:42:03.619Z,15.87
2018-05-23T05:44:31.881Z,16.10
2018-05-23T05:47:00.945Z,15.92
2018-05-23T05:49:29.116Z,15.84
2018-05-23T05:51:57.347Z,15.73
2018-05-23T05:54:25.606Z,16.06
2018-05-23T05:56:53.835Z,16.56
2018-05-23T05:59:22.831Z,16.99
2018-05-23T06:01:51.322Z,17.13
2018-05-23T06:04:19.575Z,17.27
2018-05-23T06:06:47.852Z,17.45
2018-05-23T06:09:16.162Z,17.63
2018-05-23T06:11:44.798Z,17.65
2018-05-23T06:14:13.080Z,17.83
2018-05-23T06:16:41.577Z,17.82
2018-05-23T06:19:09.865Z,17.74
2018-05-23T06:21:38.195Z,17.70
2018-05-23T06:24:06.504Z,17.85
2018-05-23T06:26:34.803Z,17.87
2018-05-23T06:29:03.903Z,17.28
2018-05-23T06:31:32.947Z,16.95
2018-05-23T06:34:01.217Z,17.02
2018-05-23T06:36:29.531Z,17.12
2018-05-23T06:38:57.896Z,17.41
2018-05-23T06:41:26.116Z,17.56
2018-05-23T06:43:54.339Z,17.68
2018-05-23T06:46:22.598Z,17.79
2018-05-23T06:48:50.828Z,17.97
2018-05-23T06:51:19.059Z,18.12
2018-05-23T06:53:47.284Z,18.27
2018-05-23T06:56:16.276Z,17.97
2018-05-23T06:58:44.508Z,18.22
2018-05-23T07:01:12.931Z,18.55
2018-05-23T07:03:41.919Z,18.87
2018-05-23T07:06:10.142Z,19.09
2018-05-23T07:08:38.399Z,19.19
2018-05-23T07:11:06.709Z,19.19
2018-05-23T07:13:35.649Z,19.57
2018-05-23T07:16:03.907Z,19.78
2018-05-23T07:18:32.147Z,20.04
2018-05-23T07:21:00.371Z,20.48
2018-05-23T07:23:29.496Z,21.02
2018-05-23T07:25:57.833Z,21.58
2018-05-23T07:28:25.953Z,21.82
2018-05-23T07:30:54.207Z,22.00
2018-05-23T07:33:22.435Z,22.46
2018-05-23T07:35:50.667Z,22.82
2018-05-23T07:38:18.927Z,23.19
2018-05-23T07:40:47.919Z,22.82
2018-05-23T07:43:16.142Z,22.71
2018-05-23T07:45:44.481Z,22.96
2018-05-23T07:48:12.647Z,24.45
2018-05-23T07:50:41.637Z,24.11
2018-05-23T07:53:09.895Z,23.73
2018-05-23T07:55:38.114Z,23.80
2018-05-23T07:58:06.352Z,22.44
2018-05-23T08:00:34.607Z,21.99
2018-05-23T08:03:02.831Z,21.54
2018-05-23T08:05:31.060Z,21.50
2018-05-23T08:07:59.319Z,21.34
2018-05-23T08:10:27.554Z,21.36
2018-05-23T08:12:55.782Z,21.42
2018-05-23T08:15:24.047Z,21.58
2018-05-23T08:17:52.284Z,21.78
2018-05-23T08:20:20.515Z,22.02
2018-05-23T08:22:48.774Z,22.32
2018-05-23T08:25:17.003Z,21.86
2018-05-23T08:27:46.008Z,22.42
2018-05-23T08:30:14.263Z,22.87
2018-05-23T08:32:42.493Z,23.56
2018-05-23T08:35:10.712Z,24.09
2018-05-23T08:37:39.739Z,24.60
2018-05-23T08:40:07.963Z,25.02
2018-05-23T08:42:36.243Z,24.44
2018-05-23T08:45:04.491Z,23.97
2018-05-23T08:47:32.715Z,23.94
2018-05-23T08:50:01.807Z,23.68
2018-05-23T08:52:30.799Z,23.53
2018-05-23T08:54:59.028Z,24.16
2018-05-23T08:57:27.276Z,24.54
2018-05-23T08:59:55.499Z,24.36
2018-05-23T09:02:23.723Z,24.04
2018-05-23T09:04:52.024Z,24.59
2018-05-23T09:07:20.199Z,23.75
2018-05-23T09:09:48.425Z,23.57
2018-05-23T09:12:16.751Z,23.66
2018-05-23T09:14:44.875Z,24.31
2018-05-23T09:17:13.135Z,24.41
2018-05-23T09:19:41.372Z,24.83
2018-05-23T09:22:09.607Z,24.53
2018-05-23T09:24:37.855Z,24.79
2018-05-23T09:27:06.071Z,25.33
2018-05-23T09:29:34.296Z,25.06
2018-05-23T09:32:02.559Z,24.68
2018-05-23T09:34:30.791Z,24.80
2018-05-23T09:36:59.790Z,24.05
2018-05-23T09:39:28.020Z,24.07
2018-05-23T09:41:56.247Z,23.40
2018-05-23T09:44:25.255Z,24.04
2018-05-23T09:46:53.482Z,24.28
2018-05-23T09:49:21.703Z,23.90
2018-05-23T09:51:50.043Z,21.84
2018-05-23T09:54:18.275Z,22.15
2018-05-23T09:56:46.499Z,22.03
2018-05-23T09:59:14.759Z,22.16
2018-05-23T10:01:42.980Z,21.80
2018-05-23T10:04:11.212Z,21.21
2018-05-23T10:06:39.452Z,20.07
2018-05-23T10:09:07.680Z,20.26
2018-05-23T10:11:35.894Z,20.49
2018-05-23T10:14:04.161Z,21.16
2018-05-23T10:16:32.385Z,21.94
2018-05-23T10:19:00.611Z,22.48
2018-05-23T10:21:28.867Z,23.73
2018-05-23T10:23:57.863Z,24.40
2018-05-23T10:26:26.114Z,26.05
2018-05-23T10:28:54.380Z,26.56
2018-05-23T10:31:22.612Z,25.87
2018-05-23T10:33:50.843Z,25.55
2018-05-23T10:36:19.106Z,26.81
2018-05-23T10:38:47.339Z,26.64
2018-05-23T10:41:15.563Z,26.70
2018-05-23T10:43:43.815Z,26.66
2018-05-23T10:46:12.068Z,27.29
2018-05-23T10:48:41.050Z,26.71
2018-05-23T10:51:09.311Z,25.15
2018-05-23T10:53:37.539Z,24.45
2018-05-23T10:56:05.764Z,25.91
2018-05-23T10:58:34.784Z,27.23
2018-05-23T11:01:03.012Z,28.00
2018-05-23T11:03:31.241Z,27.55
2018-05-23T11:05:59.567Z,28.74
2018-05-23T11:08:27.736Z,29.38
2018-05-23T11:10:55.960Z,30.64
2018-05-23T11:13:24.198Z,30.74
2018-05-23T11:15:52.536Z,32.14
2018-05-23T11:18:20.764Z,32.10
2018-05-23T11:20:49.008Z,30.91
2018-05-23T11:23:17.242Z,30.88
2018-05-23T11:25:45.474Z,32.71
2018-05-23T11:28:13.735Z,32.52
2018-05-23T11:30:41.954Z,32.30
2018-05-23T11:33:10.187Z,31.64
2018-05-23T11:35:38.436Z,33.30
2018-05-23T11:38:06.660Z,33.65
2018-05-23T11:40:34.890Z,35.20
2018-05-23T11:43:03.146Z,34.24
2018-05-23T11:45:31.375Z,36.18
2018-05-23T11:47:59.599Z,33.57
2018-05-23T11:50:27.854Z,31.31
2018-05-23T11:52:56.852Z,31.74
2018-05-23T11:55:25.075Z,33.52
2018-05-23T11:57:53.326Z,37.95
2018-05-23T12:00:21.568Z,38.71
2018-05-23T12:02:50.558Z,39.94
2018-05-23T12:05:18.819Z,39.35
2018-05-23T12:07:47.051Z,35.18
2018-05-23T12:10:15.314Z,35.41
2018-05-23T12:12:43.523Z,33.57
2018-05-23T12:15:11.746Z,32.55
2018-05-23T12:17:39.975Z,37.73
2018-05-23T12:20:08.671Z,38.45
2018-05-23T12:22:36.902Z,39.19
2018-05-23T12:25:05.132Z,40.31
2018-05-23T12:27:33.387Z,40.56
2018-05-23T12:30:01.620Z,35.39
2018-05-23T12:32:29.843Z,37.87
2018-05-23T12:34:58.107Z,38.42
2018-05-23T12:37:26.339Z,39.28
2018-05-23T12:39:55.327Z,39.28
2018-05-23T12:42:23.568Z,39.28
2018-05-23T12:44:51.796Z,38.86
2018-05-23T12:47:20.046Z,40.72
2018-05-23T12:49:48.332Z,39.15
2018-05-23T12:52:17.322Z,40.39
2018-05-23T12:54:45.549Z,40.76
2018-05-23T12:57:13.795Z,36.29
2018-05-23T12:59:42.787Z,32.81
2018-05-23T13:02:11.012Z,31.24
2018-05-23T13:04:39.275Z,31.05
2018-05-23T13:07:07.500Z,32.45
2018-05-23T13:09:36.503Z,30.97
2018-05-23T13:12:04.759Z,29.78
2018-05-23T13:14:32.994Z,29.14
2018-05-23T13:17:01.611Z,28.69
2018-05-23T13:19:29.844Z,27.18
2018-05-23T13:21:58.066Z,25.76
2018-05-23T13:24:26.330Z,24.49
2018-05-23T13:26:54.561Z,25.74
2018-05-23T13:29:22.783Z,28.59
2018-05-23T13:31:51.054Z,31.06
2018-05-23T13:34:19.263Z,32.67
2018-05-23T13:36:47.491Z,34.39
2018-05-23T13:39:15.731Z,34.83
2018-05-23T13:41:43.960Z,35.59
2018-05-23T13:44:12.183Z,35.81
2018-05-23T13:46:40.448Z,36.91
2018-05-23T13:49:08.683Z,39.30
2018-05-23T13:51:36.908Z,35.69
2018-05-23T13:54:05.156Z,34.55
2018-05-23T13:56:33.374Z,35.60
2018-05-23T13:59:01.599Z,35.10
2018-05-23T14:01:29.855Z,35.21
2018-05-23T14:03:58.083Z,35.33
2018-05-23T14:06:26.306Z,33.71
2018-05-23T14:08:54.542Z,34.70
2018-05-23T14:11:22.762Z,35.61
2018-05-23T14:13:51.007Z,34.24
2018-05-23T14:16:19.240Z,30.44
2018-05-23T14:18:47.462Z,31.08
2018-05-23T14:21:15.727Z,31.21
2018-05-23T14:23:43.954Z,33.59
2018-05-23T14:26:12.182Z,30.79
2018-05-23T14:28:40.435Z,31.80
2018-05-23T14:31:09.423Z,29.33
2018-05-23T14:33:37.646Z,26.89
2018-05-23T14:36:05.903Z,28.66
2018-05-23T14:38:34.122Z,29.21
2018-05-23T14:41:02.349Z,30.97
2018-05-23T14:43:30.614Z,29.69
2018-05-23T14:45:58.830Z,28.50
2018-05-23T14:48:27.815Z,28.29
2018-05-23T14:50:56.055Z,28.28
2018-05-23T14:53:24.274Z,28.06
2018-05-23T14:55:52.530Z,30.10
2018-05-23T14:58:21.295Z,31.05
2018-05-23T15:00:49.523Z,30.24
2018-05-23T15:03:17.744Z,27.98
2018-05-23T15:05:46.767Z,25.60
2018-05-23T15:08:14.992Z,25.27
2018-05-23T15:10:43.216Z,26.93
2018-05-23T15:13:11.630Z,28.24
2018-05-23T15:15:39.857Z,29.79
2018-05-23T15:18:08.074Z,30.81
2018-05-23T15:20:36.326Z,30.94
2018-05-23T15:23:04.551Z,32.57
2018-05-23T15:25:32.776Z,32.41
2018-05-23T15:28:01.025Z,29.75
2018-05-23T15:30:30.020Z,30.92
2018-05-23T15:32:59.003Z,32.47
2018-05-23T15:35:27.378Z,32.17
2018-05-23T15:37:56.367Z,32.67
2018-05-23T15:40:24.588Z,31.86
2018-05-23T15:42:52.838Z,32.68
2018-05-23T15:45:21.815Z,32.66
2018-05-23T15:47:50.051Z,33.64
2018-05-23T15:50:18.604Z,33.09
2018-05-23T15:52:46.828Z,33.81
2018-05-23T15:55:15.051Z,32.48
2018-05-23T15:57:43.315Z,31.16
2018-05-23T16:00:12.300Z,30.49
2018-05-23T16:02:40.526Z,31.21
2018-05-23T16:05:08.788Z,31.18
2018-05-23T16:07:37.014Z,29.21
2018-05-23T16:10:05.244Z,28.40
2018-05-23T16:12:33.639Z,28.38
2018-05-23T16:15:01.840Z,28.57
2018-05-23T16:17:30.059Z,28.26
2018-05-23T16:19:58.492Z,27.40
2018-05-23T16:22:26.710Z,26.38
2018-05-23T16:24:54.942Z,26.59
2018-05-23T16:27:23.195Z,25.93
2018-05-23T16:29:51.412Z,25.85
2018-05-23T16:32:19.639Z,26.69
2018-05-23T16:34:47.900Z,27.55
2018-05-23T16:37:16.119Z,28.41
2018-05-23T16:39:44.346Z,26.87
2018-05-23T16:42:12.579Z,26.35
2018-05-23T16:44:40.790Z,25.45
2018-05-23T16:47:09.015Z,25.30
2018-05-23T16:49:37.257Z,25.44
2018-05-23T16:52:05.510Z,25.61
2018-05-23T16:54:33.716Z,25.47
2018-05-23T16:57:01.980Z,25.47
2018-05-23T16:59:30.233Z,25.29
2018-05-23T17:01:59.226Z,24.93
2018-05-23T17:04:27.711Z,24.93
2018-05-23T17:06:55.928Z,25.08
2018-05-23T17:09:24.156Z,25.13
2018-05-23T17:11:53.608Z,24.78
2018-05-23T17:14:21.827Z,24.56
2018-05-23T17:16:50.057Z,24.59
2018-05-23T17:19:18.311Z,24.57
2018-05-23T17:21:46.551Z,24.55
2018-05-23T17:24:14.773Z,24.11
2018-05-23T17:26:43.019Z,23.46
2018-05-23T17:29:11.247Z,22.73
2018-05-23T17:31:39.475Z,22.21
2018-05-23T17:34:07.739Z,21.83
2018-05-23T17:36:36.727Z,21.35
2018-05-23T17:39:04.959Z,21.01
2018-05-23T17:41:33.211Z,20.88
2018-05-23T17:44:01.441Z,20.80
2018-05-23T17:46:29.673Z,20.85
2018-05-23T17:48:57.910Z,20.81
2018-05-23T17:51:26.127Z,20.86
2018-05-23T17:53:54.382Z,20.91
2018-05-23T17:56:22.631Z,20.94
2018-05-23T17:58:51.618Z,20.93
2018-05-23T18:01:19.848Z,20.94
2018-05-23T18:03:48.107Z,20.89
2018-05-23T18:06:16.346Z,20.92
2018-05-23T18:08:44.573Z,20.98
2018-05-23T18:11:12.873Z,20.90
2018-05-23T18:13:41.070Z,20.95
2018-05-23T18:16:09.286Z,20.80
2018-05-23T18:18:37.543Z,20.67
2018-05-23T18:21:06.535Z,20.43
2018-05-23T18:23:34.871Z,20.27
2018-05-23T18:26:03.027Z,20.23
2018-05-23T18:28:31.289Z,20.10
2018-05-23T18:30:59.478Z,19.94
2018-05-23T18:33:27.709Z,19.71
2018-05-23T18:35:55.931Z,19.68
2018-05-23T18:38:24.179Z,19.79
2018-05-23T18:40:52.443Z,19.63
2018-05-23T18:43:21.481Z,19.59
2018-05-23T18:45:49.662Z,19.69
2018-05-23T18:48:17.935Z,19.53
2018-05-23T18:50:46.174Z,19.31
2018-05-23T18:53:15.162Z,19.32
2018-05-23T18:55:43.434Z,19.29
2018-05-23T18:58:11.667Z,19.27
2018-05-23T19:00:39.892Z,19.10
2018-05-23T19:03:08.928Z,18.89
2018-05-23T19:05:37.146Z,18.87
2018-05-23T19:08:05.379Z,18.98
2018-05-23T19:10:33.639Z,19.18
2018-05-23T19:13:01.871Z,19.18
2018-05-23T19:15:30.863Z,19.13
2018-05-23T19:17:59.127Z,19.08
2018-05-23T19:20:27.357Z,19.02
2018-05-23T19:22:55.591Z,19.02
2018-05-23T19:25:23.845Z,18.91
2018-05-23T19:27:52.064Z,19.00
2018-05-23T19:30:20.287Z,18.88
2018-05-23T19:32:48.544Z,18.96
2018-05-23T19:35:16.770Z,18.91
2018-05-23T19:37:44.994Z,18.94
2018-05-23T19:40:13.245Z,18.90
2018-05-23T19:42:41.471Z,18.85
2018-05-23T19:45:09.695Z,18.76
2018-05-23T19:47:37.967Z,18.83
2018-05-23T19:50:06.187Z,18.70
2018-05-23T19:52:34.523Z,18.61
2018-05-23T19:55:03.534Z,18.45
2018-05-23T19:57:31.762Z,18.47
2018-05-23T19:59:59.986Z,18.51
2018-05-23T20:02:28.247Z,18.53
2018-05-23T20:04:57.238Z,18.54
2018-05-23T20:07:25.465Z,18.49
2018-05-23T20:09:53.722Z,18.59
2018-05-23T20:12:21.952Z,18.42
2018-05-23T20:14:50.935Z,18.46
2018-05-23T20:17:19.630Z,18.36
2018-05-23T20:19:47.851Z,18.35
2018-05-23T20:22:16.080Z,18.31
2018-05-23T20:24:45.079Z,18.33
2018-05-23T20:27:13.299Z,18.37
2018-05-23T20:29:41.555Z,18.27
2018-05-23T20:32:09.812Z,18.38
2018-05-23T20:34:38.803Z,18.31
2018-05-23T20:37:07.036Z,18.21
2018-05-23T20:39:35.272Z,18.20
2018-05-23T20:42:03.503Z,18.27
2018-05-23T20:44:31.752Z,18.30
2018-05-23T20:46:59.972Z,18.30
2018-05-23T20:49:28.199Z,18.16
2018-05-23T20:51:56.460Z,18.08
2018-05-23T20:54:24.766Z,17.86
2018-05-23T20:56:52.916Z,17.98
2018-05-23T20:59:21.184Z,18.00
2018-05-23T21:01:49.408Z,17.99
2018-05-23T21:04:17.631Z,18.00
2018-05-23T21:06:45.889Z,18.05
2018-05-23T21:09:14.879Z,18.05
2018-05-23T21:11:43.107Z,18.01
2018-05-23T21:14:11.379Z,17.96
2018-05-23T21:16:39.607Z,17.95
2018-05-23T21:19:08.592Z,17.81
2018-05-23T21:21:36.853Z,17.66
2018-05-23T21:24:05.080Z,17.54
2018-05-23T21:26:33.303Z,17.54
2018-05-23T21:29:01.547Z,17.56
2018-05-23T21:31:29.779Z,17.47
2018-05-23T21:33:58.003Z,17.35
2018-05-23T21:36:26.267Z,17.33
2018-05-23T21:38:54.495Z,17.28
2018-05-23T21:41:22.716Z,17.25
2018-05-23T21:43:50.955Z,17.13
2018-05-23T21:46:19.183Z,17.05
2018-05-23T21:48:47.411Z,17.10
2018-05-23T21:51:16.451Z,16.90
2018-05-23T21:53:44.675Z,16.82
2018-05-23T21:56:13.127Z,16.92
2018-05-23T21:58:41.391Z,17.01
2018-05-23T22:01:13.445Z,17.01
2018-05-23T22:03:41.706Z,16.96
2018-05-23T22:06:09.932Z,16.93
2018-05-23T22:08:38.154Z,16.78
2018-05-23T22:11:06.417Z,16.57
2018-05-23T22:13:35.408Z,16.50
2018-05-23T22:16:03.632Z,16.42
2018-05-23T22:18:31.879Z,16.48
2018-05-23T22:21:00.099Z,16.50
2018-05-23T22:23:28.323Z,16.37
2018-05-23T22:25:56.586Z,16.30
2018-05-23T22:28:24.811Z,16.05
2018-05-23T22:30:53.039Z,15.92
2018-05-23T22:33:22.070Z,16.13
2018-05-23T22:35:50.300Z,16.04
2018-05-23T22:38:18.520Z,15.97
2018-05-23T22:40:46.784Z,15.96
2018-05-23T22:43:15.007Z,15.96
2018-05-23T22:45:43.240Z,15.96
2018-05-23T22:48:11.507Z,15.84
2018-05-23T22:50:39.736Z,15.80
2018-05-23T22:53:07.959Z,15.71
2018-05-23T22:55:36.222Z,15.69
2018-05-23T22:58:04.455Z,15.68
2018-05-23T23:00:32.679Z,15.64
2018-05-23T23:03:00.935Z,15.56
2018-05-23T23:05:29.180Z,15.56
2018-05-23T23:07:57.407Z,15.47
2018-05-23T23:10:25.639Z,15.42
2018-05-23T23:12:53.878Z,15.30
2018-05-23T23:15:22.100Z,15.36
2018-05-23T23:17:50.358Z,15.43
2018-05-23T23:20:18.583Z,15.38
2018-05-23T23:22:46.809Z,15.38
2018-05-23T23:25:15.061Z,15.36
2018-05-23T23:27:43.426Z,15.28
2018-05-23T23:30:11.515Z,15.37
2018-05-23T23:32:39.877Z,15.39
2018-05-23T23:35:08.115Z,15.40
2018-05-23T23:37:36.352Z,15.38
2018-05-23T23:40:04.629Z,15.29
2018-05-23T23:42:32.839Z,15.34
2018-05-23T23:45:01.059Z,15.30
2018-05-23T23:47:29.303Z,15.23
2018-05-23T23:49:57.532Z,15.11
2018-05-23T23:52:25.753Z,15.05
2018-05-23T23:54:54.799Z,14.95
2018-05-23T23:57:23.031Z,14.89
2018-05-23T23:59:51.259Z,14.82
